sensor_id;sensor_type;location;lat;lon;timestamp;P1;durP1;ratioP1;P2;durP2;ratioP2
5827;SDS011;42583;50.240;8.444;2023-12-28T00:02:26;7.05;;;3.75;;
5827;SDS011;42583;50.240;8.444;2023-12-28T00:17:27;7.82;;;3.85;;
5827;SDS011;42583;50.240;8.444;2023-12-28T00:32:27;6.57;;;3.80;;
5827;SDS011;42583;50.240;8.444;2023-12-28T00:47:28;7.00;;;3.22;;
5827;SDS011;42583;50.240;8.444;2023-12-28T01:02:28;7.75;;;4.13;;
5827;SDS011;42583;50.240;8.444;2023-12-28T01:17:29;8.82;;;3.70;;
5827;SDS011;42583;50.240;8.444;2023-12-28T01:32:29;7.63;;;3.85;;
5827;SDS011;42583;50.240;8.444;2023-12-28T01:47:30;8.88;;;3.92;;
5827;SDS011;42583;50.240;8.444;2023-12-28T02:02:31;7.65;;;4.18;;
5827;SDS011;42583;50.240;8.444;2023-12-28T02:48:07;6.07;;;3.80;;
5827;SDS011;42583;50.240;8.444;2023-12-28T03:03:08;7.42;;;4.20;;
5827;SDS011;42583;50.240;8.444;2023-12-28T03:18:08;7.88;;;3.60;;
5827;SDS011;42583;50.240;8.444;2023-12-28T03:33:09;8.02;;;4.05;;
5827;SDS011;42583;50.240;8.444;2023-12-28T03:48:09;10.05;;;4.40;;
5827;SDS011;42583;50.240;8.444;2023-12-28T04:03:10;7.85;;;4.05;;
5827;SDS011;42583;50.240;8.444;2023-12-28T04:18:11;6.50;;;4.30;;
5827;SDS011;42583;50.240;8.444;2023-12-28T04:33:11;8.80;;;4.78;;
5827;SDS011;42583;50.240;8.444;2023-12-28T04:48:12;8.77;;;4.78;;
5827;SDS011;42583;50.240;8.444;2023-12-28T05:03:12;10.32;;;4.72;;
5827;SDS011;42583;50.240;8.444;2023-12-28T05:18:13;8.20;;;3.97;;
5827;SDS011;42583;50.240;8.444;2023-12-28T05:33:13;9.88;;;5.38;;
5827;SDS011;42583;50.240;8.444;2023-12-28T05:48:14;10.73;;;7.18;;
5827;SDS011;42583;50.240;8.444;2023-12-28T06:03:15;12.85;;;7.13;;
5827;SDS011;42583;50.240;8.444;2023-12-28T06:18:15;14.52;;;7.65;;
5827;SDS011;42583;50.240;8.444;2023-12-28T06:33:15;77.85;;;7.22;;
5827;SDS011;42583;50.240;8.444;2023-12-28T06:48:16;92.13;;;9.07;;
5827;SDS011;42583;50.240;8.444;2023-12-28T07:03:16;9.93;;;5.40;;
5827;SDS011;42583;50.240;8.444;2023-12-28T07:18:17;11.52;;;4.93;;
5827;SDS011;42583;50.240;8.444;2023-12-28T07:33:18;7.85;;;5.20;;
5827;SDS011;42583;50.240;8.444;2023-12-28T07:48:18;8.25;;;3.90;;
5827;SDS011;42583;50.240;8.444;2023-12-28T08:03:19;8.90;;;4.10;;
5827;SDS011;42583;50.240;8.444;2023-12-28T08:18:20;9.40;;;3.53;;
5827;SDS011;42583;50.240;8.444;2023-12-28T08:33:21;7.65;;;4.50;;
5827;SDS011;42583;50.240;8.444;2023-12-28T08:48:21;10.23;;;4.85;;
5827;SDS011;42583;50.240;8.444;2023-12-28T09:03:21;6.60;;;4.28;;
5827;SDS011;42583;50.240;8.444;2023-12-28T09:18:22;8.02;;;4.47;;
5827;SDS011;42583;50.240;8.444;2023-12-28T09:33:22;8.45;;;4.03;;
5827;SDS011;42583;50.240;8.444;2023-12-28T09:48:24;6.93;;;3.75;;
5827;SDS011;42583;50.240;8.444;2023-12-28T10:03:24;8.55;;;3.35;;
5827;SDS011;42583;50.240;8.444;2023-12-28T10:18:25;6.28;;;3.00;;
5827;SDS011;42583;50.240;8.444;2023-12-28T10:33:26;5.32;;;3.15;;
5827;SDS011;42583;50.240;8.444;2023-12-28T10:48:28;6.15;;;2.97;;
5827;SDS011;42583;50.240;8.444;2023-12-28T11:18:35;7.50;;;2.50;;
5827;SDS011;42583;50.240;8.444;2023-12-28T11:33:42;4.32;;;2.13;;
5827;SDS011;42583;50.240;8.444;2023-12-28T11:48:47;4.38;;;2.08;;
5827;SDS011;42583;50.240;8.444;2023-12-28T12:03:47;3.97;;;1.60;;
5827;SDS011;42583;50.240;8.444;2023-12-28T12:18:49;3.92;;;1.60;;
5827;SDS011;42583;50.240;8.444;2023-12-28T12:33:50;6.32;;;1.90;;
5827;SDS011;42583;50.240;8.444;2023-12-28T12:48:54;9.15;;;2.00;;
5827;SDS011;42583;50.240;8.444;2023-12-28T13:03:58;6.05;;;1.90;;
5827;SDS011;42583;50.240;8.444;2023-12-28T13:19:00;4.55;;;1.80;;
5827;SDS011;42583;50.240;8.444;2023-12-28T13:34:01;5.03;;;1.70;;
5827;SDS011;42583;50.240;8.444;2023-12-28T13:49:01;5.95;;;2.08;;
5827;SDS011;42583;50.240;8.444;2023-12-28T14:04:04;7.78;;;2.33;;
5827;SDS011;42583;50.240;8.444;2023-12-28T14:19:04;4.80;;;2.30;;
5827;SDS011;42583;50.240;8.444;2023-12-28T14:34:05;6.28;;;2.63;;
5827;SDS011;42583;50.240;8.444;2023-12-28T14:49:05;3.00;;;2.17;;
5827;SDS011;42583;50.240;8.444;2023-12-28T15:04:06;5.47;;;2.20;;
5827;SDS011;42583;50.240;8.444;2023-12-28T15:19:07;3.22;;;1.90;;
5827;SDS011;42583;50.240;8.444;2023-12-28T15:34:07;3.20;;;1.73;;
5827;SDS011;42583;50.240;8.444;2023-12-28T15:49:08;4.70;;;1.50;;
5827;SDS011;42583;50.240;8.444;2023-12-28T16:04:09;2.85;;;1.77;;
5827;SDS011;42583;50.240;8.444;2023-12-28T16:19:09;3.22;;;2.20;;
5827;SDS011;42583;50.240;8.444;2023-12-28T16:34:10;3.53;;;2.40;;
5827;SDS011;42583;50.240;8.444;2023-12-28T16:49:10;4.72;;;2.47;;
5827;SDS011;42583;50.240;8.444;2023-12-28T17:04:11;3.97;;;2.00;;
5827;SDS011;42583;50.240;8.444;2023-12-28T17:19:12;5.47;;;2.10;;
5827;SDS011;42583;50.240;8.444;2023-12-28T17:34:12;7.03;;;3.45;;
5827;SDS011;42583;50.240;8.444;2023-12-28T17:49:14;7.65;;;3.40;;
5827;SDS011;42583;50.240;8.444;2023-12-28T18:04:23;8.73;;;4.55;;
5827;SDS011;42583;50.240;8.444;2023-12-28T18:19:23;7.85;;;4.18;;
5827;SDS011;42583;50.240;8.444;2023-12-28T18:34:24;10.55;;;6.03;;
5827;SDS011;42583;50.240;8.444;2023-12-28T18:49:24;8.27;;;5.22;;
5827;SDS011;42583;50.240;8.444;2023-12-28T19:04:25;10.30;;;5.75;;
5827;SDS011;42583;50.240;8.444;2023-12-28T19:19:25;10.82;;;6.40;;
5827;SDS011;42583;50.240;8.444;2023-12-28T19:34:30;8.32;;;6.00;;
5827;SDS011;42583;50.240;8.444;2023-12-28T19:49:33;8.43;;;5.90;;
5827;SDS011;42583;50.240;8.444;2023-12-28T20:04:34;10.77;;;5.80;;
5827;SDS011;42583;50.240;8.444;2023-12-28T20:19:35;9.45;;;5.00;;
5827;SDS011;42583;50.240;8.444;2023-12-28T20:34:35;28.33;;;6.55;;
5827;SDS011;42583;50.240;8.444;2023-12-28T20:49:36;7.38;;;5.38;;
5827;SDS011;42583;50.240;8.444;2023-12-28T21:04:37;5.63;;;3.22;;
5827;SDS011;42583;50.240;8.444;2023-12-28T21:19:38;5.95;;;3.58;;
5827;SDS011;42583;50.240;8.444;2023-12-28T21:34:39;5.60;;;3.35;;
5827;SDS011;42583;50.240;8.444;2023-12-28T21:49:39;4.63;;;3.22;;
5827;SDS011;42583;50.240;8.444;2023-12-28T22:04:41;4.50;;;3.33;;
5827;SDS011;42583;50.240;8.444;2023-12-28T22:19:41;4.10;;;3.05;;
5827;SDS011;42583;50.240;8.444;2023-12-28T22:34:43;4.57;;;3.08;;
5827;SDS011;42583;50.240;8.444;2023-12-28T22:49:44;4.63;;;2.70;;
5827;SDS011;42583;50.240;8.444;2023-12-28T23:04:45;3.78;;;2.50;;
5827;SDS011;42583;50.240;8.444;2023-12-28T23:19:46;4.60;;;3.03;;
5827;SDS011;42583;50.240;8.444;2023-12-28T23:34:48;4.50;;;2.80;;
5827;SDS011;42583;50.240;8.444;2023-12-28T23:49:48;4.57;;;2.83;;
